Time;durP1;ratioP1;P1;durP2;ratioP2;P2;SDS_P1;SDS_P2;PMS_P1;PMS_P2;Temp;Humidity;BMP_temperature;BMP_pressure;BME280_temperature;BME280_humidity;BME280_pressure;Samples;Min_cycle;Max_cycle;Signal;HPM_P1;HPM_P2
2021/07/14 00:02:08;;;;;;;27.45;19.33;;;20.10;99.90;;;;;;5013859;28;20507;-87
2021/07/14 00:04:35;;;;;;;25.13;18.23;;;20.10;99.90;;;;;;4996669;28;20033;-87
2021/07/14 00:07:03;;;;;;;26.90;19.75;;;20.00;99.90;;;;;;4996988;28;20098;-86
2021/07/14 00:09:29;;;;;;;26.70;19.70;;;20.00;99.90;;;;;;4998905;28;20069;-87
2021/07/14 00:11:57;;;;;;;29.42;19.73;;;20.00;99.90;;;;;;4997797;28;20034;-88
2021/07/14 00:14:46;;;;;;;25.65;18.23;;;20.00;99.90;;;;;;4998415;28;20042;-88
2021/07/14 00:22:30;;;;;;;21.85;15.45;;;20.00;99.90;;;;;;4997403;28;20101;-85
2021/07/14 00:24:56;;;;;;;22.23;16.83;;;20.00;99.90;;;;;;4981351;28;20039;-88
2021/07/14 00:27:25;;;;;;;25.42;18.58;;;20.00;99.90;;;;;;4981865;28;20049;-86
2021/07/14 00:30:14;;;;;;;20.60;14.98;;;20.00;99.90;;;;;;4998722;28;20035;-86
2021/07/14 00:32:40;;;;;;;22.13;14.55;;;20.00;99.90;;;;;;4983220;28;20133;-86
2021/07/14 00:35:08;;;;;;;18.20;14.35;;;20.00;99.90;;;;;;4998565;28;20065;-87
2021/07/14 00:37:36;;;;;;;19.15;14.50;;;20.10;99.90;;;;;;4999608;28;20107;-89
2021/07/14 00:40:09;;;;;;;21.42;16.17;;;20.00;99.90;;;;;;5016781;28;20132;-87
2021/07/14 00:42:36;;;;;;;20.65;16.98;;;20.00;99.90;;;;;;4995290;28;20031;-89
2021/07/14 00:45:03;;;;;;;21.52;15.70;;;20.00;99.90;;;;;;4999662;28;20033;-88
2021/07/14 00:47:32;;;;;;;23.05;16.70;;;20.00;99.90;;;;;;5034013;28;20069;-88
2021/07/14 00:49:59;;;;;;;20.50;15.13;;;20.00;99.90;;;;;;5027360;28;20136;-88
2021/07/14 00:52:25;;;;;;;19.25;14.70;;;20.00;99.90;;;;;;5028407;28;20037;-89
2021/07/14 00:54:52;;;;;;;17.13;15.27;;;20.00;99.90;;;;;;5016808;28;20108;-88
2021/07/14 00:57:19;;;;;;;20.10;15.20;;;20.00;99.90;;;;;;5012100;28;20140;-88
2021/07/14 00:59:45;;;;;;;20.92;17.00;;;20.00;99.90;;;;;;5032865;28;20465;-88
2021/07/14 01:02:11;;;;;;;21.05;17.30;;;20.00;99.90;;;;;;5017010;28;20041;-86
2021/07/14 01:04:51;;;;;;;25.40;18.40;;;19.90;99.90;;;;;;5016644;28;20084;-87
2021/07/14 01:07:23;;;;;;;19.30;15.02;;;20.00;99.90;;;;;;5017428;28;20077;-87
2021/07/14 01:10:08;;;;;;;19.03;13.80;;;20.00;99.90;;;;;;5003424;28;20167;-85
2021/07/14 01:13:03;;;;;;;17.38;14.38;;;20.00;99.90;;;;;;5026456;28;20504;-88
2021/07/14 01:15:51;;;;;;;19.60;14.95;;;20.00;99.90;;;;;;5017885;28;20067;-89
2021/07/14 01:18:34;;;;;;;17.48;14.18;;;19.90;99.90;;;;;;5011187;28;20038;-88
2021/07/14 01:21:10;;;;;;;;;;;19.90;99.90;;;;;;5031176;28;20125;-89
2021/07/14 01:24:03;;;;;;;17.60;13.43;;;19.90;99.90;;;;;;5016886;28;19913;-88
2021/07/14 01:26:44;;;;;;;17.65;13.40;;;19.90;99.90;;;;;;5016857;28;20126;-86
2021/07/14 01:29:15;;;;;;;16.38;13.43;;;20.00;99.90;;;;;;5017323;28;20025;-87
2021/07/14 01:31:43;;;;;;;15.82;13.00;;;20.00;99.90;;;;;;4997638;28;20041;-87
2021/07/14 01:34:12;;;;;;;18.15;13.77;;;20.00;99.90;;;;;;5015192;28;20037;-89
2021/07/14 01:36:41;;;;;;;16.38;13.10;;;20.00;99.90;;;;;;5016447;28;20064;-86
2021/07/14 01:39:08;;;;;;;15.95;12.13;;;19.90;99.90;;;;;;5014800;28;20119;-87
2021/07/14 01:41:37;;;;;;;19.95;13.40;;;19.90;99.90;;;;;;5015867;28;20034;-88
2021/07/14 01:44:04;;;;;;;15.70;12.90;;;20.00;99.90;;;;;;5015540;28;20037;-88
2021/07/14 01:46:33;;;;;;;19.05;14.20;;;19.90;99.90;;;;;;5015365;28;20092;-89
2021/07/14 01:49:03;;;;;;;20.77;14.95;;;19.90;99.90;;;;;;4998366;28;20030;-89
2021/07/14 01:51:31;;;;;;;21.23;15.43;;;19.90;99.90;;;;;;4999217;28;20092;-88
2021/07/14 01:53:59;;;;;;;24.23;16.48;;;19.80;99.90;;;;;;5018552;28;20042;-85
2021/07/14 01:56:26;;;;;;;20.38;14.40;;;19.80;99.90;;;;;;5006743;28;20049;-87
2021/07/14 01:58:54;;;;;;;22.17;14.25;;;19.80;99.90;;;;;;5023289;28;20041;-88
2021/07/14 02:01:20;;;;;;;18.15;14.88;;;19.80;99.90;;;;;;5021435;28;20080;-88
2021/07/14 02:06:34;;;;;;;23.77;16.50;;;19.70;99.90;;;;;;5024236;28;20041;-88
2021/07/14 02:09:00;;;;;;;17.92;14.20;;;19.70;99.90;;;;;;5021846;28;20480;-87
2021/07/14 02:11:27;;;;;;;17.20;13.85;;;19.70;99.90;;;;;;5018150;28;20038;-87
2021/07/14 02:13:54;;;;;;;21.45;16.45;;;19.70;99.90;;;;;;5018968;28;20042;-90
2021/07/14 02:16:22;;;;;;;18.25;13.60;;;19.70;99.90;;;;;;5020443;28;20022;-87
2021/07/14 02:18:53;;;;;;;19.30;15.35;;;19.70;99.90;;;;;;5021267;28;20088;-89
2021/07/14 02:21:18;;;;;;;19.83;14.35;;;19.60;99.90;;;;;;5021342;28;20037;-88
2021/07/14 02:23:44;;;;;;;17.23;14.30;;;19.60;99.90;;;;;;5020597;28;20061;-89
2021/07/14 02:26:09;;;;;;;17.75;14.40;;;19.70;99.90;;;;;;5019700;28;20504;-88
2021/07/14 02:28:35;;;;;;;19.02;14.27;;;19.70;99.90;;;;;;5019516;28;20036;-88
2021/07/14 02:31:00;;;;;;;22.20;16.08;;;19.70;99.90;;;;;;5019037;28;20034;-88
2021/07/14 02:33:26;;;;;;;21.00;14.82;;;19.60;99.90;;;;;;5019855;28;20042;-89
2021/07/14 02:35:59;;;;;;;20.45;14.70;;;19.60;99.90;;;;;;5020229;28;20101;-88
2021/07/14 02:38:28;;;;;;;21.27;15.02;;;19.70;99.90;;;;;;5020754;28;20038;-88
2021/07/14 02:41:17;;;;;;;26.73;17.30;;;19.60;99.90;;;;;;5019495;28;20040;-88
2021/07/14 02:43:48;;;;;;;22.83;15.57;;;19.60;99.90;;;;;;5021265;28;20092;-87
2021/07/14 02:46:23;;;;;;;21.80;16.10;;;19.60;99.90;;;;;;5003114;28;20039;-89
2021/07/14 02:48:52;;;;;;;30.98;20.38;;;19.60;99.90;;;;;;5019194;28;20033;-89
2021/07/14 02:51:21;;;;;;;23.83;16.83;;;19.60;99.90;;;;;;5020874;28;20119;-88
2021/07/14 02:53:50;;;;;;;26.40;18.42;;;19.60;99.90;;;;;;5019960;28;20061;-88
2021/07/14 02:56:20;;;;;;;28.23;18.00;;;19.60;99.90;;;;;;5019913;28;20064;-87
2021/07/14 02:58:53;;;;;;;24.20;17.33;;;19.60;99.90;;;;;;5016959;28;20061;-88
2021/07/14 03:01:19;;;;;;;;;;;19.60;99.90;;;;;;5017089;28;20034;-87
2021/07/14 03:03:48;;;;;;;25.85;16.55;;;19.60;99.90;;;;;;5001988;28;20278;-87
2021/07/14 03:06:13;;;;;;;31.23;21.67;;;19.50;99.90;;;;;;5016791;28;20033;-88
2021/07/14 03:08:43;;;;;;;26.73;18.90;;;19.60;99.90;;;;;;5017510;28;20033;-86
2021/07/14 03:11:08;;;;;;;24.63;18.35;;;19.50;99.90;;;;;;5017429;28;20118;-87
2021/07/14 03:13:36;;;;;;;23.48;17.75;;;19.50;99.90;;;;;;5017019;28;20093;-87
2021/07/14 03:16:04;;;;;;;26.15;18.48;;;19.50;99.90;;;;;;5018161;28;20069;-88
2021/07/14 03:18:31;;;;;;;18.70;14.50;;;19.50;99.90;;;;;;5017413;28;20179;-86
2021/07/14 03:20:59;;;;;;;21.35;15.82;;;19.50;99.90;;;;;;5016449;28;20080;-87
2021/07/14 03:23:25;;;;;;;23.55;16.38;;;19.50;99.90;;;;;;5016940;28;20484;-87
2021/07/14 03:25:51;;;;;;;23.63;16.88;;;19.50;99.90;;;;;;5016799;28;20083;-85
2021/07/14 03:28:19;;;;;;;25.60;17.73;;;19.60;99.90;;;;;;5017480;28;20232;-87
2021/07/14 03:30:46;;;;;;;29.35;20.05;;;19.60;99.90;;;;;;5016449;28;20032;-88
2021/07/14 03:33:13;;;;;;;23.98;17.83;;;19.60;99.90;;;;;;5016473;28;20093;-87
2021/07/14 03:35:39;;;;;;;26.17;17.58;;;19.50;99.90;;;;;;5017862;28;20049;-87
2021/07/14 03:38:09;;;;;;;24.70;17.13;;;19.50;99.90;;;;;;5016053;28;20030;-86
2021/07/14 03:40:35;;;;;;;23.58;17.15;;;19.50;99.90;;;;;;5018420;28;20026;-88
2021/07/14 03:43:03;;;;;;;21.98;15.55;;;19.50;99.90;;;;;;5016932;28;20420;-88
2021/07/14 03:45:29;;;;;;;23.60;16.63;;;19.50;99.90;;;;;;5017517;28;20391;-87
2021/07/14 03:47:56;;;;;;;20.98;15.30;;;19.50;99.90;;;;;;5016358;28;20038;-88
2021/07/14 03:50:22;;;;;;;26.50;17.60;;;19.50;99.90;;;;;;5018046;28;20034;-86
2021/07/14 03:52:49;;;;;;;23.77;17.35;;;19.50;99.90;;;;;;5000314;28;20056;-88
2021/07/14 03:55:15;;;;;;;26.33;18.48;;;19.50;99.90;;;;;;5016975;28;20042;-89
2021/07/14 03:57:42;;;;;;;28.92;19.65;;;19.50;99.90;;;;;;5000646;28;20502;-88
2021/07/14 04:00:09;;;;;;;28.25;20.50;;;19.50;99.90;;;;;;5018774;28;20498;-88
2021/07/14 04:02:40;;;;;;;25.48;18.40;;;19.50;99.90;;;;;;5017584;28;20026;-88
2021/07/14 04:05:07;;;;;;;22.67;17.80;;;19.40;99.90;;;;;;5000741;28;20092;-88
2021/07/14 04:07:34;;;;;;;24.20;16.50;;;19.40;99.90;;;;;;5018827;28;20428;-89
2021/07/14 04:10:02;;;;;;;21.98;15.57;;;19.40;99.90;;;;;;5017857;28;20037;-86
2021/07/14 04:12:27;;;;;;;22.00;16.05;;;19.40;99.90;;;;;;5017393;28;20050;-86
2021/07/14 04:14:53;;;;;;;23.00;16.30;;;19.40;99.90;;;;;;5018567;28;20061;-87
2021/07/14 04:17:19;;;;;;;23.65;16.10;;;19.50;99.90;;;;;;5015943;28;20038;-87
2021/07/14 04:19:45;;;;;;;22.05;14.90;;;19.40;99.90;;;;;;5016584;28;20032;-87
2021/07/14 04:22:13;;;;;;;20.65;15.20;;;19.40;99.90;;;;;;5016772;28;20065;-88
2021/07/14 04:24:40;;;;;;;19.17;14.63;;;19.40;99.90;;;;;;5017445;28;20109;-88
2021/07/14 04:27:07;;;;;;;24.08;17.42;;;19.40;99.90;;;;;;5000475;28;20041;-87
2021/07/14 04:29:32;;;;;;;19.33;13.88;;;19.40;99.90;;;;;;5016946;28;20037;-88
2021/07/14 04:31:58;;;;;;;19.92;15.50;;;19.50;99.90;;;;;;5016527;28;20034;-86
2021/07/14 04:34:24;;;;;;;21.88;15.95;;;19.40;99.90;;;;;;5017723;28;20034;-88
2021/07/14 04:36:50;;;;;;;18.55;13.90;;;19.40;99.90;;;;;;5017289;28;20030;-88
2021/07/14 04:39:16;;;;;;;20.48;14.85;;;19.40;99.90;;;;;;5017081;28;20030;-89
2021/07/14 04:41:41;;;;;;;22.50;16.30;;;19.40;99.90;;;;;;5014419;28;20136;-88
2021/07/14 04:44:09;;;;;;;20.67;14.65;;;19.40;99.90;;;;;;5014563;28;20029;-88
2021/07/14 04:46:35;;;;;;;18.27;12.88;;;19.40;99.90;;;;;;5015530;28;20141;-89
2021/07/14 04:49:02;;;;;;;20.27;14.55;;;19.40;99.90;;;;;;5016472;28;20030;-89
2021/07/14 04:51:28;;;;;;;17.45;13.88;;;19.40;99.90;;;;;;5016482;28;20066;-93
2021/07/14 04:53:54;;;;;;;20.65;14.05;;;19.40;99.90;;;;;;5016037;28;20038;-91
2021/07/14 04:56:20;;;;;;;17.08;12.95;;;19.40;99.90;;;;;;5018172;28;20070;-86
2021/07/14 04:58:46;;;;;;;18.65;12.82;;;19.40;99.90;;;;;;5024475;28;20045;-89
2021/07/14 05:01:14;;;;;;;18.48;12.93;;;19.40;99.90;;;;;;5020971;28;20034;-88
2021/07/14 05:03:44;;;;;;;14.88;12.10;;;19.40;99.90;;;;;;4999580;28;20050;-89
2021/07/14 05:06:20;;;;;;;16.35;12.18;;;19.40;99.90;;;;;;5013936;28;20026;-87
2021/07/14 05:08:46;;;;;;;16.55;12.68;;;19.40;99.90;;;;;;5016699;28;20065;-88
2021/07/14 05:11:13;;;;;;;16.38;13.30;;;19.40;99.90;;;;;;5014618;28;20038;-91
2021/07/14 05:13:39;;;;;;;16.92;12.70;;;19.50;99.90;;;;;;4997678;28;20042;-90
2021/07/14 05:16:05;;;;;;;17.48;12.93;;;19.40;99.90;;;;;;5016493;28;20129;-90
2021/07/14 05:18:34;;;;;;;19.25;12.85;;;19.40;99.90;;;;;;5017067;28;20046;-91
2021/07/14 05:21:00;;;;;;;16.42;13.35;;;19.40;99.90;;;;;;5016314;28;20088;-90
2021/07/14 05:23:26;;;;;;;17.75;13.55;;;19.50;99.90;;;;;;5017546;28;20041;-90
2021/07/14 05:25:52;;;;;;;16.42;12.27;;;19.50;99.90;;;;;;5014344;28;20037;-90
2021/07/14 05:28:17;;;;;;;13.63;12.10;;;19.50;99.90;;;;;;5016897;28;20045;-90
2021/07/14 05:30:43;;;;;;;16.42;12.32;;;19.50;99.90;;;;;;5021475;28;20101;-91
2021/07/14 05:33:09;;;;;;;18.80;11.98;;;19.60;99.90;;;;;;5015283;28;20048;-90
2021/07/14 05:35:35;;;;;;;16.27;12.20;;;19.60;99.90;;;;;;5002435;28;20040;-89
2021/07/14 05:38:01;;;;;;;13.95;11.38;;;19.60;99.90;;;;;;5019536;28;20044;-88
2021/07/14 05:40:27;;;;;;;13.60;11.07;;;19.60;99.90;;;;;;5017726;28;20069;-87
2021/07/14 05:42:52;;;;;;;14.50;11.55;;;19.60;99.90;;;;;;5018118;28;20084;-92
2021/07/14 05:45:18;;;;;;;15.20;12.05;;;19.60;99.90;;;;;;5003413;28;20049;-90
2021/07/14 05:47:45;;;;;;;13.65;11.55;;;19.60;99.90;;;;;;5021003;28;20026;-91
2021/07/14 05:50:11;;;;;;;14.20;12.23;;;19.60;99.90;;;;;;5018819;28;20033;-89
2021/07/14 05:52:36;;;;;;;16.45;12.80;;;19.60;99.90;;;;;;5019597;28;20045;-92
2021/07/14 05:55:03;;;;;;;19.60;14.35;;;19.60;99.90;;;;;;5018641;28;20025;-90
2021/07/14 05:57:28;;;;;;;18.38;13.00;;;19.50;99.90;;;;;;5002820;28;20054;-88
2021/07/14 05:59:54;;;;;;;17.65;13.20;;;19.60;99.90;;;;;;5018552;28;20033;-87
2021/07/14 06:02:20;;;;;;;16.27;12.98;;;19.50;99.90;;;;;;5019571;28;20484;-88
2021/07/14 06:04:45;;;;;;;16.40;14.13;;;19.60;99.90;;;;;;5019333;28;20030;-86
2021/07/14 06:07:11;;;;;;;17.25;13.35;;;19.60;99.90;;;;;;5010153;28;20369;-87
2021/07/14 06:09:39;;;;;;;16.17;12.50;;;19.60;99.90;;;;;;5011233;28;20117;-88
2021/07/14 06:12:05;;;;;;;15.85;13.45;;;19.60;99.90;;;;;;5009267;28;20049;-87
2021/07/14 06:14:31;;;;;;;15.85;12.43;;;19.60;99.90;;;;;;5020921;28;20037;-88
2021/07/14 06:16:56;;;;;;;13.95;11.20;;;19.70;99.90;;;;;;5019102;28;20046;-91
2021/07/14 06:19:22;;;;;;;14.93;12.65;;;19.70;99.90;;;;;;5018848;28;20120;-88
2021/07/14 06:21:47;;;;;;;16.30;12.15;;;19.80;99.90;;;;;;5020320;28;20399;-87
2021/07/14 06:24:13;;;;;;;14.20;11.13;;;19.80;99.90;;;;;;5019221;28;20029;-88
2021/07/14 06:26:39;;;;;;;12.10;10.73;;;19.90;99.90;;;;;;5004000;28;20075;-86
2021/07/14 06:29:06;;;;;;;12.85;10.60;;;19.90;99.90;;;;;;5022097;28;20069;-86
2021/07/14 06:31:31;;;;;;;12.98;11.05;;;19.90;99.90;;;;;;5019591;28;20518;-88
2021/07/14 06:33:57;;;;;;;16.90;13.63;;;20.00;99.90;;;;;;5017694;28;20133;-85
2021/07/14 06:36:23;;;;;;;18.30;15.40;;;20.00;99.90;;;;;;5020483;28;20037;-89
2021/07/14 06:38:49;;;;;;;19.45;16.70;;;20.00;99.90;;;;;;5019492;28;20388;-87
2021/07/14 06:41:18;;;;;;;20.65;16.15;;;19.90;99.90;;;;;;5019863;28;20022;-88
2021/07/14 06:43:45;;;;;;;17.08;14.18;;;20.00;99.90;;;;;;5021288;28;20026;-90
2021/07/14 06:46:13;;;;;;;17.90;13.50;;;20.00;99.90;;;;;;5019705;28;20522;-89
2021/07/14 06:48:39;;;;;;;20.98;16.08;;;20.00;99.90;;;;;;5021550;28;20037;-87
2021/07/14 06:51:06;;;;;;;20.00;16.90;;;20.00;99.90;;;;;;5020479;28;20089;-87
2021/07/14 06:53:32;;;;;;;19.27;15.02;;;20.00;99.90;;;;;;5020082;28;20057;-90
2021/07/14 06:55:58;;;;;;;16.70;14.05;;;20.00;99.90;;;;;;5003457;28;20073;-88
2021/07/14 06:58:25;;;;;;;17.27;13.50;;;19.90;99.90;;;;;;5019537;28;20042;-89
2021/07/14 07:00:51;;;;;;;16.73;13.05;;;20.00;99.90;;;;;;5020040;28;20034;-88
2021/07/14 07:03:18;;;;;;;19.02;14.73;;;20.00;99.90;;;;;;5018724;28;20041;-87
2021/07/14 07:05:43;;;;;;;15.18;12.82;;;20.00;99.90;;;;;;5018702;28;20076;-89
2021/07/14 07:08:09;;;;;;;17.88;13.80;;;20.00;99.90;;;;;;5018724;28;20034;-90
2021/07/14 07:10:34;;;;;;;15.20;12.85;;;20.10;99.90;;;;;;5019427;28;20038;-88
2021/07/14 07:13:00;;;;;;;14.18;12.20;;;20.10;99.90;;;;;;5020888;28;20081;-89
2021/07/14 07:15:26;;;;;;;20.48;14.07;;;20.10;99.90;;;;;;5018363;28;20054;-86
2021/07/14 07:17:51;;;;;;;16.25;12.30;;;20.10;99.90;;;;;;5002358;28;20054;-87
2021/07/14 07:20:17;;;;;;;16.85;13.32;;;20.10;99.90;;;;;;5018812;28;20026;-90
2021/07/14 07:22:44;;;;;;;16.17;12.70;;;20.10;99.90;;;;;;5018176;28;20030;-88
2021/07/14 07:25:12;;;;;;;19.33;15.88;;;20.10;99.90;;;;;;5020034;28;20037;-87
2021/07/14 07:27:38;;;;;;;18.33;15.15;;;20.10;99.90;;;;;;5019000;28;20042;-88
2021/07/14 07:30:06;;;;;;;18.50;14.35;;;20.00;99.90;;;;;;5018530;28;20145;-89
2021/07/14 07:32:32;;;;;;;16.13;14.18;;;20.00;99.90;;;;;;5019600;28;20037;-87
2021/07/14 07:34:58;;;;;;;15.15;11.88;;;20.10;99.90;;;;;;5019026;28;20128;-87
2021/07/14 07:37:24;;;;;;;15.77;12.70;;;20.10;99.90;;;;;;5017907;28;20057;-86
2021/07/14 07:39:50;;;;;;;16.63;12.95;;;20.10;99.90;;;;;;5017882;28;20487;-87
2021/07/14 07:42:17;;;;;;;16.13;12.38;;;20.10;99.90;;;;;;5017534;28;20037;-85
2021/07/14 07:44:43;;;;;;;17.02;12.65;;;20.20;99.90;;;;;;5018167;28;20464;-87
2021/07/14 07:47:10;;;;;;;18.95;14.68;;;20.20;99.90;;;;;;5017784;28;20037;-86
2021/07/14 07:49:36;;;;;;;23.88;17.55;;;20.10;99.90;;;;;;5018621;28;20038;-88
2021/07/14 07:52:03;;;;;;;22.70;16.88;;;20.10;99.90;;;;;;5017404;28;20085;-86
2021/07/14 07:54:29;;;;;;;21.95;16.48;;;20.00;99.90;;;;;;5017547;28;20030;-86
2021/07/14 07:56:55;;;;;;;22.42;16.70;;;20.00;99.90;;;;;;5002371;28;20065;-87
2021/07/14 07:59:21;;;;;;;23.00;17.48;;;20.00;99.90;;;;;;5023571;28;20038;-87
2021/07/14 08:01:47;;;;;;;21.45;16.23;;;19.90;99.90;;;;;;5020585;28;20042;-85
2021/07/14 08:04:13;;;;;;;20.02;14.40;;;20.00;99.90;;;;;;5025517;28;20030;-86
2021/07/14 08:06:39;;;;;;;21.23;16.65;;;20.00;99.90;;;;;;5023890;28;20029;-87
2021/07/14 08:09:06;;;;;;;24.75;16.83;;;19.90;99.90;;;;;;5042582;28;20034;-86
2021/07/14 08:11:32;;;;;;;20.45;14.75;;;19.90;99.90;;;;;;5010987;28;20068;-88
2021/07/14 08:13:59;;;;;;;21.52;16.63;;;20.00;99.90;;;;;;5012342;28;20057;-86
2021/07/14 08:16:27;;;;;;;19.52;15.30;;;20.00;99.90;;;;;;5025124;28;20078;-88
2021/07/14 08:18:53;;;;;;;25.75;20.15;;;20.10;99.90;;;;;;5024896;28;20033;-86
2021/07/14 08:21:19;;;;;;;23.88;17.08;;;20.00;99.90;;;;;;5045553;28;20044;-85
2021/07/14 08:23:46;;;;;;;21.80;17.42;;;20.10;99.90;;;;;;5033017;28;20038;-87
2021/07/14 08:26:14;;;;;;;23.23;17.95;;;20.10;99.90;;;;;;5033229;28;20032;-85
2021/07/14 08:28:41;;;;;;;20.83;16.40;;;20.10;99.90;;;;;;5037439;28;20033;-86
2021/07/14 08:31:07;;;;;;;19.17;14.40;;;20.10;99.90;;;;;;5053061;28;20040;-88
2021/07/14 08:33:32;;;;;;;17.27;13.90;;;20.10;99.90;;;;;;5042654;28;20049;-89
2021/07/14 08:35:58;;;;;;;17.65;14.63;;;20.10;99.90;;;;;;5022080;28;20065;-88
2021/07/14 08:38:23;;;;;;;15.18;12.32;;;20.10;99.90;;;;;;5009602;28;20050;-86
2021/07/14 08:40:53;;;;;;;15.27;12.48;;;20.20;99.90;;;;;;5033108;28;20025;-89
2021/07/14 08:43:22;;;;;;;15.32;12.07;;;20.20;99.90;;;;;;5018528;28;20030;-89
2021/07/14 08:45:48;;;;;;;16.98;13.07;;;20.30;99.90;;;;;;5010209;28;20121;-87
2021/07/14 08:48:14;;;;;;;15.70;12.82;;;20.30;99.90;;;;;;5034819;28;20058;-87
2021/07/14 08:50:43;;;;;;;18.23;14.32;;;20.30;99.90;;;;;;5017998;28;20026;-88
2021/07/14 08:53:20;;;;;;;19.65;14.98;;;20.40;99.90;;;;;;5018914;28;20602;-88
2021/07/14 08:55:48;;;;;;;17.52;14.88;;;20.40;99.90;;;;;;5002095;28;20104;-88
2021/07/14 08:58:19;;;;;;;22.23;16.98;;;20.40;99.90;;;;;;5013788;28;20125;-89
2021/07/14 09:00:47;;;;;;;19.42;14.55;;;20.40;99.90;;;;;;5033615;28;20026;-88
2021/07/14 09:03:13;;;;;;;18.67;14.38;;;20.40;99.90;;;;;;5026094;28;20025;-86
2021/07/14 09:05:39;;;;;;;18.42;13.93;;;20.40;99.90;;;;;;5021528;28;20403;-87
2021/07/14 09:08:05;;;;;;;18.83;14.48;;;20.40;99.90;;;;;;5026498;28;20033;-88
2021/07/14 09:10:31;;;;;;;17.33;14.98;;;20.50;99.90;;;;;;5020316;28;20027;-86
2021/07/14 09:12:59;;;;;;;22.13;16.20;;;20.50;99.90;;;;;;5031695;28;20052;-83
2021/07/14 09:15:27;;;;;;;21.95;17.25;;;20.50;99.90;;;;;;5017218;28;20658;-87
2021/07/14 09:17:58;;;;;;;23.02;19.50;;;20.40;99.90;;;;;;5017329;28;20022;-88
2021/07/14 09:20:27;;;;;;;19.52;16.95;;;20.40;99.90;;;;;;4997967;28;20034;-85
2021/07/14 09:23:14;;;;;;;21.15;16.17;;;20.40;99.90;;;;;;5015694;28;20034;-86
2021/07/14 09:25:50;;;;;;;22.52;16.83;;;20.40;99.90;;;;;;5018732;28;20042;-86
2021/07/14 09:28:21;;;;;;;19.80;16.65;;;20.40;99.90;;;;;;5031692;28;20503;-85
2021/07/14 09:30:57;;;;;;;18.85;15.18;;;20.40;99.90;;;;;;5007926;28;20025;-87
2021/07/14 09:33:23;;;;;;;16.98;13.70;;;20.40;99.90;;;;;;5019223;28;20045;-86
2021/07/14 09:35:54;;;;;;;14.15;12.35;;;20.50;99.90;;;;;;5018851;28;20030;-86
2021/07/14 09:38:29;;;;;;;16.77;14.82;;;20.50;99.90;;;;;;5016348;28;20041;-86
2021/07/14 09:41:06;;;;;;;18.42;14.82;;;20.60;99.90;;;;;;5035767;28;20113;-86
2021/07/14 09:43:50;;;;;;;19.23;15.32;;;20.50;99.90;;;;;;5029326;28;20104;-84
2021/07/14 09:46:17;;;;;;;23.67;18.50;;;20.50;99.90;;;;;;5031929;28;20467;-85
2021/07/14 09:48:46;;;;;;;19.52;15.95;;;20.50;99.90;;;;;;5017698;28;20056;-87
2021/07/14 09:51:14;;;;;;;24.38;17.77;;;20.40;99.90;;;;;;5016040;28;20030;-86
2021/07/14 09:53:46;;;;;;;20.88;15.55;;;20.50;99.90;;;;;;5016612;28;20050;-87
2021/07/14 09:56:13;;;;;;;19.83;15.73;;;20.50;99.90;;;;;;5018695;28;20522;-86
2021/07/14 09:58:40;;;;;;;17.15;14.05;;;20.40;99.90;;;;;;5017425;28;20723;-90
2021/07/14 10:01:07;;;;;;;19.30;14.88;;;20.50;99.90;;;;;;5032924;28;20432;-87
2021/07/14 10:03:36;;;;;;;17.30;14.15;;;20.60;99.90;;;;;;4983031;28;20117;-84
2021/07/14 10:06:13;;;;;;;19.23;15.70;;;20.60;99.90;;;;;;4999061;28;20040;-84
2021/07/14 10:08:47;;;;;;;21.48;17.58;;;20.70;99.90;;;;;;5019203;28;20070;-85
2021/07/14 10:11:24;;;;;;;27.75;22.13;;;20.60;99.90;;;;;;5020107;28;20037;-87
2021/07/14 10:14:28;;;;;;;22.92;17.70;;;20.50;99.90;;;;;;4998748;28;20120;-85
2021/07/14 10:16:53;;;;;;;26.63;19.40;;;20.50;99.90;;;;;;4974508;28;20124;-90
2021/07/14 10:19:20;;;;;;;23.55;18.67;;;20.50;99.90;;;;;;5001478;28;20060;-89
2021/07/14 10:21:48;;;;;;;29.83;21.65;;;20.50;99.90;;;;;;5008465;28;20081;-88
2021/07/14 10:24:19;;;;;;;29.23;20.63;;;20.40;99.90;;;;;;5017844;28;20129;-87
2021/07/14 10:26:47;;;;;;;26.30;19.42;;;20.40;99.90;;;;;;4998251;28;20040;-88
2021/07/14 10:29:13;;;;;;;22.80;18.88;;;20.40;99.90;;;;;;5031138;28;20034;-86
2021/07/14 10:31:39;;;;;;;30.27;23.45;;;20.40;99.90;;;;;;5006427;28;20038;-89
2021/07/14 10:34:08;;;;;;;28.80;21.17;;;20.40;99.90;;;;;;5012192;28;20045;-86
2021/07/14 10:36:41;;;;;;;24.48;18.65;;;20.40;99.90;;;;;;5021849;28;20124;-88
2021/07/14 10:39:17;;;;;;;20.13;16.48;;;20.40;99.90;;;;;;5040336;28;20037;-89
2021/07/14 10:41:43;;;;;;;27.10;19.38;;;20.50;99.90;;;;;;5010637;28;20081;-88
2021/07/14 10:44:09;;;;;;;31.23;21.27;;;20.40;99.90;;;;;;5030068;28;20032;-87
2021/07/14 10:46:37;;;;;;;38.92;25.23;;;20.50;99.90;;;;;;5019089;28;20030;-88
2021/07/14 10:49:06;;;;;;;32.92;22.98;;;20.40;99.90;;;;;;5025746;28;20033;-89
2021/07/14 10:51:33;;;;;;;31.67;24.00;;;20.30;99.90;;;;;;5038672;28;20129;-87
2021/07/14 10:54:02;;;;;;;29.52;21.73;;;20.30;99.90;;;;;;5022408;28;20117;-89
2021/07/14 10:56:30;;;;;;;23.65;18.15;;;20.20;99.90;;;;;;5017514;28;20132;-88
2021/07/14 10:58:57;;;;;;;26.10;19.73;;;20.30;99.90;;;;;;5018817;28;20075;-88
2021/07/14 11:01:43;;;;;;;21.75;16.08;;;20.30;99.90;;;;;;5020615;28;20114;-89
2021/07/14 11:04:28;;;;;;;25.30;17.67;;;20.40;99.90;;;;;;5027582;28;20084;-87
2021/07/14 11:06:56;;;;;;;29.50;20.67;;;20.40;99.90;;;;;;4994536;28;20072;-86
2021/07/14 11:09:37;;;;;;;22.63;17.60;;;20.40;99.90;;;;;;5021412;28;20037;-87
2021/07/14 11:12:08;;;;;;;26.10;18.65;;;20.40;99.90;;;;;;5013079;28;20469;-90
2021/07/14 11:14:40;;;;;;;28.45;20.27;;;20.50;99.90;;;;;;4985227;28;20045;-89
2021/07/14 11:17:08;;;;;;;24.38;16.55;;;20.60;99.90;;;;;;5032123;28;20092;-89
2021/07/14 11:19:43;;;;;;;25.95;18.80;;;20.60;99.90;;;;;;4999947;28;20037;-89
2021/07/14 11:22:09;;;;;;;21.48;16.55;;;20.70;99.90;;;;;;5000994;28;20034;-91
2021/07/14 11:27:27;;;;;;;33.70;21.60;;;20.60;99.90;;;;;;5039224;28;20045;-89
2021/07/14 11:29:54;;;;;;;25.67;18.08;;;20.60;99.90;;;;;;5024488;28;20490;-90
2021/07/14 11:32:37;;;;;;;22.70;17.10;;;20.60;99.90;;;;;;5010623;28;20503;-89
2021/07/14 11:35:06;;;;;;;31.90;21.55;;;20.60;99.90;;;;;;5019765;28;20502;-88
2021/07/14 11:37:37;;;;;;;22.48;17.25;;;20.60;99.90;;;;;;5027529;28;20038;-88
2021/07/14 11:40:21;;;;;;;25.48;16.60;;;20.60;99.90;;;;;;5025294;28;20104;-90
2021/07/14 11:43:09;;;;;;;21.08;15.40;;;20.60;99.90;;;;;;5021610;28;20035;-89
2021/07/14 11:45:40;;;;;;;25.02;17.73;;;20.60;99.90;;;;;;5020415;28;20030;-90
2021/07/14 11:48:06;;;;;;;24.42;16.33;;;20.60;99.90;;;;;;5029835;28;20041;-89
2021/07/14 11:51:03;;;;;;;30.88;20.20;;;20.60;99.90;;;;;;5023029;28;20068;-88
2021/07/14 11:53:32;;;;;;;29.05;20.67;;;20.60;99.90;;;;;;4997862;28;20042;-88
2021/07/14 11:56:17;;;;;;;28.55;19.23;;;20.50;99.90;;;;;;5025087;28;20038;-87
2021/07/14 11:58:45;;;;;;;24.27;17.38;;;20.40;99.90;;;;;;5016163;28;20378;-89
2021/07/14 12:01:17;;;;;;;28.92;19.67;;;20.40;99.90;;;;;;5017109;28;20038;-89
2021/07/14 12:04:02;;;;;;;32.70;21.98;;;20.40;99.90;;;;;;5016327;28;20047;-88
2021/07/14 12:06:38;;;;;;;28.58;19.67;;;20.40;99.90;;;;;;5019051;28;20038;-89
2021/07/14 12:09:22;;;;;;;22.60;16.67;;;20.40;99.90;;;;;;5001299;28;20061;-92
2021/07/14 12:11:54;;;;;;;26.33;18.17;;;20.40;99.90;;;;;;5018973;28;20065;-89
2021/07/14 12:14:24;;;;;;;24.98;17.20;;;20.50;99.90;;;;;;5006161;28;20049;-91
2021/07/14 12:17:15;;;;;;;24.88;17.98;;;20.50;99.90;;;;;;5019239;28;20066;-89
2021/07/14 12:19:43;;;;;;;25.90;17.52;;;20.60;99.90;;;;;;5012878;28;20112;-90
2021/07/14 12:22:14;;;;;;;20.05;15.70;;;20.60;99.90;;;;;;5035642;28;20038;-91
2021/07/14 12:24:41;;;;;;;23.30;17.60;;;20.70;99.90;;;;;;5034291;28;20061;-90
2021/07/14 12:27:13;;;;;;;24.88;17.48;;;20.80;99.90;;;;;;5026079;28;20050;-90
2021/07/14 12:29:40;;;;;;;19.35;15.05;;;20.80;99.90;;;;;;5002363;28;20042;-91
2021/07/14 12:32:07;;;;;;;22.60;17.20;;;20.80;99.90;;;;;;4986157;28;20034;-89
2021/07/14 12:34:35;;;;;;;22.80;16.90;;;20.80;99.90;;;;;;5003857;28;20045;-88
2021/07/14 12:37:02;;;;;;;22.20;17.17;;;20.90;99.90;;;;;;5014965;28;20377;-88
2021/07/14 12:39:31;;;;;;;21.25;16.52;;;20.90;99.90;;;;;;5033488;28;20060;-90
2021/07/14 12:42:00;;;;;;;23.35;16.60;;;21.00;99.90;;;;;;5019681;28;20484;-88
2021/07/14 12:44:27;;;;;;;20.17;15.10;;;21.10;99.90;;;;;;5031531;28;20040;-88
2021/07/14 12:46:54;;;;;;;18.20;13.88;;;21.20;99.90;;;;;;5018017;28;20041;-89
2021/07/14 12:49:23;;;;;;;19.17;14.30;;;21.30;99.90;;;;;;5007699;28;20050;-88